sensor_id;sensor_type;location;lat;lon;timestamp;pressure;altitude;pressure_sealevel;temperature;humidity
76762;BME280;65705;51.032;13.790;2023-06-19T00:02:09;100160.50;;;19.77;60.24
76762;BME280;65705;51.032;13.790;2023-06-19T00:04:35;100159.72;;;19.77;59.95
76762;BME280;65705;51.032;13.790;2023-06-19T00:07:01;100155.41;;;19.76;60.23
76762;BME280;65705;51.032;13.790;2023-06-19T00:09:27;100158.72;;;19.71;60.26
76762;BME280;65705;51.032;13.790;2023-06-19T00:11:53;100159.97;;;19.69;60.47
76762;BME280;65705;51.032;13.790;2023-06-19T00:14:18;100157.97;;;19.64;60.53
76762;BME280;65705;51.032;13.790;2023-06-19T00:16:44;100151.00;;;19.63;60.68
76762;BME280;65705;51.032;13.790;2023-06-19T00:19:10;100147.94;;;19.60;60.94
76762;BME280;65705;51.032;13.790;2023-06-19T00:21:37;100149.59;;;19.61;60.99
76762;BME280;65705;51.032;13.790;2023-06-19T00:24:04;100146.94;;;19.61;60.95
76762;BME280;65705;51.032;13.790;2023-06-19T00:26:30;100146.09;;;19.60;60.87
76762;BME280;65705;51.032;13.790;2023-06-19T00:28:56;100150.38;;;19.61;60.71
76762;BME280;65705;51.032;13.790;2023-06-19T00:31:22;100148.78;;;19.60;60.73
76762;BME280;65705;51.032;13.790;2023-06-19T00:33:49;100148.38;;;19.57;60.92
76762;BME280;65705;51.032;13.790;2023-06-19T00:36:16;100142.47;;;19.55;60.96
76762;BME280;65705;51.032;13.790;2023-06-19T00:38:47;100149.84;;;19.53;61.26
76762;BME280;65705;51.032;13.790;2023-06-19T00:41:15;100145.75;;;19.50;61.53
76762;BME280;65705;51.032;13.790;2023-06-19T00:43:41;100147.84;;;19.48;61.56
76762;BME280;65705;51.032;13.790;2023-06-19T00:46:11;100152.56;;;19.46;61.37
76762;BME280;65705;51.032;13.790;2023-06-19T00:48:37;100142.72;;;19.47;61.43
76762;BME280;65705;51.032;13.790;2023-06-19T00:51:03;100141.31;;;19.44;61.53
76762;BME280;65705;51.032;13.790;2023-06-19T00:53:30;100145.19;;;19.42;61.55
76762;BME280;65705;51.032;13.790;2023-06-19T00:55:56;100143.59;;;19.41;61.71
76762;BME280;65705;51.032;13.790;2023-06-19T00:58:24;100142.75;;;19.40;62.02
76762;BME280;65705;51.032;13.790;2023-06-19T01:00:50;100148.94;;;19.34;62.22
76762;BME280;65705;51.032;13.790;2023-06-19T01:03:16;100133.81;;;19.28;62.37
76762;BME280;65705;51.032;13.790;2023-06-19T01:05:42;100139.75;;;19.24;62.71
76762;BME280;65705;51.032;13.790;2023-06-19T01:10:51;100132.25;;;19.14;63.17
76762;BME280;65705;51.032;13.790;2023-06-19T01:15:49;100134.69;;;19.16;63.22
76762;BME280;65705;51.032;13.790;2023-06-19T01:18:16;100141.25;;;19.20;63.00
76762;BME280;65705;51.032;13.790;2023-06-19T01:20:42;100136.72;;;19.20;63.23
76762;BME280;65705;51.032;13.790;2023-06-19T01:23:08;100137.75;;;19.19;63.06
76762;BME280;65705;51.032;13.790;2023-06-19T01:25:35;100131.16;;;19.22;62.90
76762;BME280;65705;51.032;13.790;2023-06-19T01:28:05;100125.28;;;19.20;62.70
76762;BME280;65705;51.032;13.790;2023-06-19T01:30:35;100119.56;;;19.16;62.85
76762;BME280;65705;51.032;13.790;2023-06-19T01:35:36;100123.88;;;19.11;62.94
76762;BME280;65705;51.032;13.790;2023-06-19T01:38:02;100121.22;;;19.11;62.65
76762;BME280;65705;51.032;13.790;2023-06-19T01:40:32;100113.66;;;19.08;62.53
76762;BME280;65705;51.032;13.790;2023-06-19T01:42:59;100120.44;;;19.04;62.66
76762;BME280;65705;51.032;13.790;2023-06-19T01:45:30;100116.97;;;19.03;62.73
76762;BME280;65705;51.032;13.790;2023-06-19T01:47:57;100119.84;;;19.02;62.72
76762;BME280;65705;51.032;13.790;2023-06-19T01:50:23;100113.09;;;18.99;63.04
76762;BME280;65705;51.032;13.790;2023-06-19T01:52:51;100112.88;;;19.01;62.95
76762;BME280;65705;51.032;13.790;2023-06-19T01:55:17;100107.59;;;18.94;63.22
76762;BME280;65705;51.032;13.790;2023-06-19T01:57:43;100111.72;;;18.90;63.30
76762;BME280;65705;51.032;13.790;2023-06-19T02:00:11;100105.16;;;18.86;63.39
76762;BME280;65705;51.032;13.790;2023-06-19T02:02:41;100107.66;;;18.81;63.87
76762;BME280;65705;51.032;13.790;2023-06-19T02:05:07;100103.78;;;18.83;63.69
76762;BME280;65705;51.032;13.790;2023-06-19T02:07:32;100104.00;;;18.82;63.66
76762;BME280;65705;51.032;13.790;2023-06-19T02:09:58;100099.06;;;18.79;63.93
76762;BME280;65705;51.032;13.790;2023-06-19T02:12:24;100093.16;;;18.77;63.81
76762;BME280;65705;51.032;13.790;2023-06-19T02:14:49;100092.34;;;18.76;64.13
76762;BME280;65705;51.032;13.790;2023-06-19T02:17:15;100092.16;;;18.71;63.85
76762;BME280;65705;51.032;13.790;2023-06-19T02:19:41;100091.75;;;18.68;64.21
76762;BME280;65705;51.032;13.790;2023-06-19T02:22:06;100091.97;;;18.66;64.50
76762;BME280;65705;51.032;13.790;2023-06-19T02:24:32;100092.19;;;18.65;64.33
76762;BME280;65705;51.032;13.790;2023-06-19T02:26:58;100094.22;;;18.63;64.45
76762;BME280;65705;51.032;13.790;2023-06-19T02:29:25;100094.22;;;18.63;64.35
76762;BME280;65705;51.032;13.790;2023-06-19T02:31:50;100099.97;;;18.60;64.46
76762;BME280;65705;51.032;13.790;2023-06-19T02:34:16;100094.88;;;18.58;64.42
76762;BME280;65705;51.032;13.790;2023-06-19T02:36:42;100097.16;;;18.55;64.46
76762;BME280;65705;51.032;13.790;2023-06-19T02:39:09;100089.78;;;18.50;64.55
76762;BME280;65705;51.032;13.790;2023-06-19T02:41:34;100092.22;;;18.52;64.65
76762;BME280;65705;51.032;13.790;2023-06-19T02:44:02;100084.69;;;18.49;64.52
76762;BME280;65705;51.032;13.790;2023-06-19T02:46:28;100084.69;;;18.49;64.59
76762;BME280;65705;51.032;13.790;2023-06-19T02:48:54;100081.81;;;18.50;64.58
76762;BME280;65705;51.032;13.790;2023-06-19T02:51:21;100083.69;;;18.50;64.68
76762;BME280;65705;51.032;13.790;2023-06-19T02:53:47;100082.41;;;18.52;64.58
76762;BME280;65705;51.032;13.790;2023-06-19T02:56:13;100085.69;;;18.54;64.50
76762;BME280;65705;51.032;13.790;2023-06-19T02:58:38;100088.38;;;18.48;64.34
76762;BME280;65705;51.032;13.790;2023-06-19T03:01:05;100078.16;;;18.45;64.56
76762;BME280;65705;51.032;13.790;2023-06-19T03:03:34;100080.81;;;18.45;64.53
76762;BME280;65705;51.032;13.790;2023-06-19T03:06:06;100075.50;;;18.45;64.75
76762;BME280;65705;51.032;13.790;2023-06-19T03:08:35;100077.13;;;18.46;64.61
76762;BME280;65705;51.032;13.790;2023-06-19T03:11:01;100075.91;;;18.42;64.48
76762;BME280;65705;51.032;13.790;2023-06-19T03:13:33;100071.00;;;18.39;64.76
76762;BME280;65705;51.032;13.790;2023-06-19T03:15:59;100071.44;;;18.42;64.74
76762;BME280;65705;51.032;13.790;2023-06-19T03:18:25;100069.78;;;18.41;64.74
76762;BME280;65705;51.032;13.790;2023-06-19T03:20:51;100069.16;;;18.46;64.71
76762;BME280;65705;51.032;13.790;2023-06-19T03:23:16;100068.75;;;18.49;64.45
76762;BME280;65705;51.032;13.790;2023-06-19T03:25:42;100070.97;;;18.52;64.63
76762;BME280;65705;51.032;13.790;2023-06-19T03:28:09;100071.34;;;18.55;64.47
76762;BME280;65705;51.032;13.790;2023-06-19T03:30:35;100075.00;;;18.61;64.11
76762;BME280;65705;51.032;13.790;2023-06-19T03:33:01;100078.72;;;18.60;64.12
76762;BME280;65705;51.032;13.790;2023-06-19T03:35:47;100080.72;;;18.64;64.07
76762;BME280;65705;51.032;13.790;2023-06-19T03:38:33;100076.84;;;18.67;63.59
76762;BME280;65705;51.032;13.790;2023-06-19T03:40:59;100081.97;;;18.62;63.47
76762;BME280;65705;51.032;13.790;2023-06-19T03:43:25;100073.81;;;18.57;63.73
76762;BME280;65705;51.032;13.790;2023-06-19T03:45:50;100072.19;;;18.56;64.16
76762;BME280;65705;51.032;13.790;2023-06-19T03:48:17;100068.91;;;18.60;64.02
76762;BME280;65705;51.032;13.790;2023-06-19T03:50:43;100074.81;;;18.62;63.76
76762;BME280;65705;51.032;13.790;2023-06-19T03:53:09;100064.59;;;18.66;63.83
76762;BME280;65705;51.032;13.790;2023-06-19T03:55:35;100062.31;;;18.69;63.78
76762;BME280;65705;51.032;13.790;2023-06-19T03:58:00;100066.38;;;18.72;63.96
76762;BME280;65705;51.032;13.790;2023-06-19T04:00:27;100068.22;;;18.71;63.96
76762;BME280;65705;51.032;13.790;2023-06-19T04:02:53;100073.94;;;18.75;63.98
76762;BME280;65705;51.032;13.790;2023-06-19T04:05:19;100073.53;;;18.78;63.93
76762;BME280;65705;51.032;13.790;2023-06-19T04:07:45;100074.72;;;18.82;63.85
76762;BME280;65705;51.032;13.790;2023-06-19T04:10:13;100077.41;;;18.82;63.66
76762;BME280;65705;51.032;13.790;2023-06-19T04:12:39;100078.78;;;18.84;63.81
76762;BME280;65705;51.032;13.790;2023-06-19T04:15:07;100075.91;;;18.86;63.54
76762;BME280;65705;51.032;13.790;2023-06-19T04:17:33;100072.84;;;18.89;63.88
76762;BME280;65705;51.032;13.790;2023-06-19T04:19:58;100071.19;;;18.95;63.55
76762;BME280;65705;51.032;13.790;2023-06-19T04:22:24;100063.38;;;19.00;63.70
76762;BME280;65705;51.032;13.790;2023-06-19T04:24:50;100076.22;;;19.03;63.42
76762;BME280;65705;51.032;13.790;2023-06-19T04:27:16;100064.59;;;19.04;63.70
76762;BME280;65705;51.032;13.790;2023-06-19T04:29:42;100076.19;;;19.09;63.54
76762;BME280;65705;51.032;13.790;2023-06-19T04:32:08;100081.25;;;19.17;63.31
76762;BME280;65705;51.032;13.790;2023-06-19T04:34:38;100089.78;;;19.26;63.21
76762;BME280;65705;51.032;13.790;2023-06-19T04:37:04;100088.53;;;19.35;63.14
76762;BME280;65705;51.032;13.790;2023-06-19T04:39:30;100090.13;;;19.42;63.09
76762;BME280;65705;51.032;13.790;2023-06-19T04:41:56;100079.63;;;19.47;63.09
76762;BME280;65705;51.032;13.790;2023-06-19T04:44:21;100084.97;;;19.47;62.59
76762;BME280;65705;51.032;13.790;2023-06-19T04:46:47;100090.06;;;19.49;62.94
76762;BME280;65705;51.032;13.790;2023-06-19T04:49:13;100086.16;;;19.51;63.04
76762;BME280;65705;51.032;13.790;2023-06-19T04:51:40;100090.25;;;19.54;62.83
76762;BME280;65705;51.032;13.790;2023-06-19T04:54:06;100074.06;;;19.55;62.79
76762;BME280;65705;51.032;13.790;2023-06-19T04:56:32;100085.88;;;19.59;62.79
76762;BME280;65705;51.032;13.790;2023-06-19T04:58:58;100081.97;;;19.62;62.84
76762;BME280;65705;51.032;13.790;2023-06-19T05:01:26;100079.69;;;19.65;62.74
76762;BME280;65705;51.032;13.790;2023-06-19T05:03:56;100087.63;;;19.72;62.46
76762;BME280;65705;51.032;13.790;2023-06-19T05:06:23;100083.94;;;19.73;62.40
76762;BME280;65705;51.032;13.790;2023-06-19T05:08:48;100086.38;;;19.74;62.66
76762;BME280;65705;51.032;13.790;2023-06-19T05:11:14;100089.63;;;19.76;62.56
76762;BME280;65705;51.032;13.790;2023-06-19T05:13:39;100095.94;;;19.82;62.52
76762;BME280;65705;51.032;13.790;2023-06-19T05:16:05;100093.06;;;19.83;61.91
76762;BME280;65705;51.032;13.790;2023-06-19T05:18:31;100096.31;;;19.85;62.11
76762;BME280;65705;51.032;13.790;2023-06-19T05:20:57;100094.84;;;19.89;62.11
76762;BME280;65705;51.032;13.790;2023-06-19T05:23:22;100097.91;;;19.93;61.66
76762;BME280;65705;51.032;13.790;2023-06-19T05:25:48;100101.94;;;19.95;61.92
76762;BME280;65705;51.032;13.790;2023-06-19T05:28:14;100107.66;;;19.99;62.02
76762;BME280;65705;51.032;13.790;2023-06-19T05:30:39;100101.91;;;20.02;61.67
76762;BME280;65705;51.032;13.790;2023-06-19T05:33:05;100092.03;;;20.03;60.60
76762;BME280;65705;51.032;13.790;2023-06-19T05:35:31;100096.94;;;20.06;61.27
76762;BME280;65705;51.032;13.790;2023-06-19T05:37:57;100098.34;;;20.08;61.29
76762;BME280;65705;51.032;13.790;2023-06-19T05:40:23;100100.59;;;20.11;61.85
76762;BME280;65705;51.032;13.790;2023-06-19T05:42:49;100094.81;;;20.14;61.32
76762;BME280;65705;51.032;13.790;2023-06-19T05:45:14;100103.22;;;20.18;61.21
76762;BME280;65705;51.032;13.790;2023-06-19T05:47:40;100108.09;;;20.21;61.39
76762;BME280;65705;51.032;13.790;2023-06-19T05:50:06;100103.34;;;20.23;61.20
76762;BME280;65705;51.032;13.790;2023-06-19T05:52:32;100103.13;;;20.24;61.00
76762;BME280;65705;51.032;13.790;2023-06-19T05:54:58;100097.94;;;20.29;60.69
76762;BME280;65705;51.032;13.790;2023-06-19T05:57:24;100104.69;;;20.32;60.61
76762;BME280;65705;51.032;13.790;2023-06-19T05:59:50;100099.13;;;20.33;60.96
76762;BME280;65705;51.032;13.790;2023-06-19T06:02:17;100097.06;;;20.35;61.04
76762;BME280;65705;51.032;13.790;2023-06-19T06:04:43;100101.16;;;20.38;60.74
76762;BME280;65705;51.032;13.790;2023-06-19T06:07:09;100101.75;;;20.40;60.78
76762;BME280;65705;51.032;13.790;2023-06-19T06:09:35;100103.13;;;20.42;60.62
76762;BME280;65705;51.032;13.790;2023-06-19T06:12:01;100110.13;;;20.43;60.38
76762;BME280;65705;51.032;13.790;2023-06-19T06:14:26;100108.84;;;20.46;59.73
76762;BME280;65705;51.032;13.790;2023-06-19T06:16:53;100110.63;;;20.52;59.66
76762;BME280;65705;51.032;13.790;2023-06-19T06:19:21;100114.47;;;20.56;59.47
76762;BME280;65705;51.032;13.790;2023-06-19T06:21:50;100111.38;;;20.59;59.52
76762;BME280;65705;51.032;13.790;2023-06-19T06:24:15;100115.22;;;20.63;59.57
76762;BME280;65705;51.032;13.790;2023-06-19T06:26:41;100119.03;;;20.67;59.21
76762;BME280;65705;51.032;13.790;2023-06-19T06:29:08;100114.91;;;20.71;59.04
76762;BME280;65705;51.032;13.790;2023-06-19T06:31:34;100112.38;;;20.76;58.80
76762;BME280;65705;51.032;13.790;2023-06-19T06:34:00;100118.66;;;20.81;58.75
76762;BME280;65705;51.032;13.790;2023-06-19T06:36:26;100122.75;;;20.84;58.53
76762;BME280;65705;51.032;13.790;2023-06-19T06:38:51;100121.50;;;20.86;57.86
76762;BME280;65705;51.032;13.790;2023-06-19T06:41:17;100120.81;;;20.91;58.12
76762;BME280;65705;51.032;13.790;2023-06-19T06:43:43;100125.44;;;20.95;57.51
76762;BME280;65705;51.032;13.790;2023-06-19T06:46:09;100129.75;;;20.96;57.66
76762;BME280;65705;51.032;13.790;2023-06-19T06:48:36;100127.69;;;20.98;58.01
76762;BME280;65705;51.032;13.790;2023-06-19T06:51:02;100130.34;;;20.98;58.14
76762;BME280;65705;51.032;13.790;2023-06-19T06:53:28;100139.00;;;21.01;57.72
76762;BME280;65705;51.032;13.790;2023-06-19T06:55:55;100133.78;;;21.06;57.48
76762;BME280;65705;51.032;13.790;2023-06-19T06:58:20;100129.84;;;21.08;57.48
76762;BME280;65705;51.032;13.790;2023-06-19T07:00:47;100133.44;;;21.14;57.93
76762;BME280;65705;51.032;13.790;2023-06-19T07:03:13;100133.03;;;21.17;56.83
76762;BME280;65705;51.032;13.790;2023-06-19T07:05:38;100138.50;;;21.22;56.96
76762;BME280;65705;51.032;13.790;2023-06-19T07:08:04;100139.44;;;21.27;56.51
76762;BME280;65705;51.032;13.790;2023-06-19T07:10:30;100134.47;;;21.31;56.04
76762;BME280;65705;51.032;13.790;2023-06-19T07:12:56;100136.66;;;21.34;56.25
76762;BME280;65705;51.032;13.790;2023-06-19T07:15:22;100136.78;;;21.39;56.18
76762;BME280;65705;51.032;13.790;2023-06-19T07:17:47;100132.38;;;21.44;56.05
76762;BME280;65705;51.032;13.790;2023-06-19T07:20:14;100132.50;;;21.49;55.85
76762;BME280;65705;51.032;13.790;2023-06-19T07:22:41;100130.00;;;21.54;55.98
76762;BME280;65705;51.032;13.790;2023-06-19T07:25:07;100136.47;;;21.58;56.14
76762;BME280;65705;51.032;13.790;2023-06-19T07:27:34;100132.66;;;21.66;55.64
76762;BME280;65705;51.032;13.790;2023-06-19T07:30:00;100143.72;;;21.69;55.53
76762;BME280;65705;51.032;13.790;2023-06-19T07:32:26;100149.19;;;21.74;55.05
76762;BME280;65705;51.032;13.790;2023-06-19T07:34:53;100143.63;;;21.76;55.07
76762;BME280;65705;51.032;13.790;2023-06-19T07:37:19;100141.94;;;21.81;55.14
76762;BME280;65705;51.032;13.790;2023-06-19T07:39:45;100136.94;;;21.85;55.18
76762;BME280;65705;51.032;13.790;2023-06-19T07:42:13;100145.66;;;21.92;54.67
76762;BME280;65705;51.032;13.790;2023-06-19T07:44:40;100136.69;;;21.98;54.39
76762;BME280;65705;51.032;13.790;2023-06-19T07:47:06;100147.28;;;22.05;54.22
76762;BME280;65705;51.032;13.790;2023-06-19T07:49:32;100138.06;;;22.12;54.40
76762;BME280;65705;51.032;13.790;2023-06-19T07:51:58;100143.78;;;22.16;54.60
76762;BME280;65705;51.032;13.790;2023-06-19T07:54:24;100145.53;;;22.22;54.17
76762;BME280;65705;51.032;13.790;2023-06-19T07:56:49;100139.34;;;22.21;54.05
76762;BME280;65705;51.032;13.790;2023-06-19T07:59:15;100145.28;;;22.23;53.86
76762;BME280;65705;51.032;13.790;2023-06-19T08:01:42;100142.97;;;22.27;54.23
76762;BME280;65705;51.032;13.790;2023-06-19T08:04:08;100143.53;;;22.29;54.25
76762;BME280;65705;51.032;13.790;2023-06-19T08:06:34;100148.44;;;22.32;54.36
76762;BME280;65705;51.032;13.790;2023-06-19T08:09:00;100152.25;;;22.36;53.80
76762;BME280;65705;51.032;13.790;2023-06-19T08:11:26;100156.44;;;22.43;53.45
76762;BME280;65705;51.032;13.790;2023-06-19T08:13:51;100153.75;;;22.43;53.58
76762;BME280;65705;51.032;13.790;2023-06-19T08:16:17;100151.44;;;22.47;53.53
76762;BME280;65705;51.032;13.790;2023-06-19T08:18:44;100157.13;;;22.50;53.39
76762;BME280;65705;51.032;13.790;2023-06-19T08:21:10;100156.22;;;22.56;53.48
76762;BME280;65705;51.032;13.790;2023-06-19T08:23:36;100156.00;;;22.58;53.19
76762;BME280;65705;51.032;13.790;2023-06-19T08:26:03;100153.91;;;22.60;53.38
76762;BME280;65705;51.032;13.790;2023-06-19T08:28:31;100161.19;;;22.64;53.39
76762;BME280;65705;51.032;13.790;2023-06-19T08:30:57;100166.09;;;22.67;53.46
76762;BME280;65705;51.032;13.790;2023-06-19T08:33:29;100160.41;;;22.64;53.24
76762;BME280;65705;51.032;13.790;2023-06-19T08:35:55;100163.63;;;22.66;52.94
76762;BME280;65705;51.032;13.790;2023-06-19T08:38:21;100163.09;;;22.64;53.01
76762;BME280;65705;51.032;13.790;2023-06-19T08:40:46;100160.16;;;22.65;53.27
76762;BME280;65705;51.032;13.790;2023-06-19T08:43:12;100165.28;;;22.67;53.54
76762;BME280;65705;51.032;13.790;2023-06-19T08:45:39;100168.53;;;22.69;53.17
76762;BME280;65705;51.032;13.790;2023-06-19T08:48:05;100165.75;;;22.64;53.27
76762;BME280;65705;51.032;13.790;2023-06-19T08:50:38;100165.53;;;22.65;53.41
76762;BME280;65705;51.032;13.790;2023-06-19T08:53:04;100171.66;;;22.66;54.03
76762;BME280;65705;51.032;13.790;2023-06-19T08:55:29;100156.44;;;22.66;54.70
76762;BME280;65705;51.032;13.790;2023-06-19T08:57:55;100155.28;;;22.62;55.29
76762;BME280;65705;51.032;13.790;2023-06-19T09:00:28;100168.44;;;22.64;56.73
76762;BME280;65705;51.032;13.790;2023-06-19T09:03:02;100165.75;;;22.64;55.85
76762;BME280;65705;51.032;13.790;2023-06-19T09:05:28;100166.56;;;22.64;55.70
76762;BME280;65705;51.032;13.790;2023-06-19T09:07:56;100167.13;;;22.66;55.19
76762;BME280;65705;51.032;13.790;2023-06-19T09:10:23;100166.31;;;22.66;54.92
76762;BME280;65705;51.032;13.790;2023-06-19T09:12:57;100170.41;;;22.68;55.06
76762;BME280;65705;51.032;13.790;2023-06-19T09:15:27;100174.47;;;22.71;55.08
76762;BME280;65705;51.032;13.790;2023-06-19T09:20:34;100167.81;;;22.73;54.67
76762;BME280;65705;51.032;13.790;2023-06-19T09:23:00;100172.47;;;22.78;54.95
76762;BME280;65705;51.032;13.790;2023-06-19T09:25:26;100166.06;;;22.79;55.16
76762;BME280;65705;51.032;13.790;2023-06-19T09:27:53;100175.75;;;22.80;54.94
76762;BME280;65705;51.032;13.790;2023-06-19T09:30:20;100171.41;;;22.79;55.05
76762;BME280;65705;51.032;13.790;2023-06-19T09:32:46;100164.44;;;22.78;55.30
76762;BME280;65705;51.032;13.790;2023-06-19T09:35:12;100168.97;;;22.77;55.45
76762;BME280;65705;51.032;13.790;2023-06-19T09:37:39;100168.75;;;22.79;55.19
76762;BME280;65705;51.032;13.790;2023-06-19T09:40:08;100171.66;;;22.77;54.79
76762;BME280;65705;51.032;13.790;2023-06-19T09:42:40;100168.66;;;22.74;54.72
76762;BME280;65705;51.032;13.790;2023-06-19T09:45:13;100174.00;;;22.74;54.77
76762;BME280;65705;51.032;13.790;2023-06-19T09:47:45;100167.56;;;22.75;55.20
76762;BME280;65705;51.032;13.790;2023-06-19T09:50:13;100167.38;;;22.76;55.65
76762;BME280;65705;51.032;13.790;2023-06-19T09:52:40;100166.53;;;22.76;55.79
76762;BME280;65705;51.032;13.790;2023-06-19T09:55:09;100163.88;;;22.76;55.82
76762;BME280;65705;51.032;13.790;2023-06-19T09:57:38;100160.38;;;22.75;56.01
76762;BME280;65705;51.032;13.790;2023-06-19T10:00:07;100167.13;;;22.78;56.18
76762;BME280;65705;51.032;13.790;2023-06-19T10:02:41;100170.84;;;22.77;56.14
76762;BME280;65705;51.032;13.790;2023-06-19T10:05:07;100167.91;;;22.78;55.87
76762;BME280;65705;51.032;13.790;2023-06-19T10:07:45;100162.56;;;22.78;55.65
76762;BME280;65705;51.032;13.790;2023-06-19T10:10:33;100165.47;;;22.77;55.54
76762;BME280;65705;51.032;13.790;2023-06-19T10:13:11;100170.38;;;22.80;56.01
76762;BME280;65705;51.032;13.790;2023-06-19T10:15:43;100171.31;;;22.85;56.18
76762;BME280;65705;51.032;13.790;2023-06-19T10:18:18;100175.94;;;22.90;55.79
76762;BME280;65705;51.032;13.790;2023-06-19T10:20:45;100158.81;;;22.91;55.67
76762;BME280;65705;51.032;13.790;2023-06-19T10:23:14;100168.25;;;22.93;55.59
76762;BME280;65705;51.032;13.790;2023-06-19T10:25:45;100162.97;;;22.98;55.39
76762;BME280;65705;51.032;13.790;2023-06-19T10:28:25;100165.19;;;23.02;55.54
76762;BME280;65705;51.032;13.790;2023-06-19T10:31:02;100159.13;;;23.06;55.51
76762;BME280;65705;51.032;13.790;2023-06-19T10:33:31;100150.59;;;23.09;54.89
76762;BME280;65705;51.032;13.790;2023-06-19T10:35:59;100152.56;;;23.14;54.90
76762;BME280;65705;51.032;13.790;2023-06-19T10:38:28;100142.78;;;23.19;55.10
76762;BME280;65705;51.032;13.790;2023-06-19T10:40:54;100156.00;;;23.26;55.01
76762;BME280;65705;51.032;13.790;2023-06-19T10:43:22;100145.16;;;23.32;54.82
76762;BME280;65705;51.032;13.790;2023-06-19T10:45:53;100140.81;;;23.43;54.69
76762;BME280;65705;51.032;13.790;2023-06-19T10:48:24;100132.63;;;23.49;53.63
76762;BME280;65705;51.032;13.790;2023-06-19T10:50:50;100137.25;;;23.54;53.89
76762;BME280;65705;51.032;13.790;2023-06-19T10:53:32;100125.88;;;23.63;53.78
76762;BME280;65705;51.032;13.790;2023-06-19T10:56:00;100129.53;;;23.74;53.45
76762;BME280;65705;51.032;13.790;2023-06-19T10:58:26;100128.84;;;23.78;53.00
76762;BME280;65705;51.032;13.790;2023-06-19T11:00:52;100132.63;;;23.82;53.33
76762;BME280;65705;51.032;13.790;2023-06-19T11:03:19;100139.13;;;23.86;53.30
76762;BME280;65705;51.032;13.790;2023-06-19T11:05:45;100135.72;;;23.91;53.02
76762;BME280;65705;51.032;13.790;2023-06-19T11:08:20;100143.28;;;23.94;53.29
76762;BME280;65705;51.032;13.790;2023-06-19T11:10:46;100130.75;;;23.99;52.97
76762;BME280;65705;51.032;13.790;2023-06-19T11:13:17;100135.25;;;24.11;52.75
76762;BME280;65705;51.032;13.790;2023-06-19T11:15:43;100130.78;;;24.16;52.34
76762;BME280;65705;51.032;13.790;2023-06-19T11:18:09;100137.34;;;24.25;51.77
76762;BME280;65705;51.032;13.790;2023-06-19T11:20:51;100128.78;;;24.28;51.97
76762;BME280;65705;51.032;13.790;2023-06-19T11:23:25;100135.09;;;24.39;51.08
76762;BME280;65705;51.032;13.790;2023-06-19T11:25:51;100142.44;;;24.43;51.12
76762;BME280;65705;51.032;13.790;2023-06-19T11:28:17;100137.13;;;24.48;50.87
76762;BME280;65705;51.032;13.790;2023-06-19T11:30:48;100140.19;;;24.57;51.03
76762;BME280;65705;51.032;13.790;2023-06-19T11:33:22;100138.13;;;24.64;50.67
76762;BME280;65705;51.032;13.790;2023-06-19T11:35:52;100133.72;;;24.74;50.40
76762;BME280;65705;51.032;13.790;2023-06-19T11:38:24;100125.28;;;24.87;49.61
76762;BME280;65705;51.032;13.790;2023-06-19T11:40:52;100126.91;;;24.88;49.45
76762;BME280;65705;51.032;13.790;2023-06-19T11:43:31;100122.34;;;24.89;49.68
76762;BME280;65705;51.032;13.790;2023-06-19T11:46:05;100113.00;;;24.91;49.49
76762;BME280;65705;51.032;13.790;2023-06-19T11:48:31;100106.84;;;24.96;48.49
76762;BME280;65705;51.032;13.790;2023-06-19T11:50:58;100102.84;;;24.98;47.67
76762;BME280;65705;51.032;13.790;2023-06-19T11:53:24;100093.47;;;25.01;48.21
76762;BME280;65705;51.032;13.790;2023-06-19T11:55:51;100098.41;;;25.09;48.33
76762;BME280;65705;51.032;13.790;2023-06-19T11:58:17;100089.38;;;25.20;47.24
76762;BME280;65705;51.032;13.790;2023-06-19T12:00:45;100092.41;;;25.29;46.40
76762;BME280;65705;51.032;13.790;2023-06-19T12:03:10;100098.72;;;25.39;45.68
76762;BME280;65705;51.032;13.790;2023-06-19T12:05:37;100093.41;;;25.49;45.11
76762;BME280;65705;51.032;13.790;2023-06-19T12:08:03;100091.13;;;25.63;44.64
76762;BME280;65705;51.032;13.790;2023-06-19T12:10:30;100085.53;;;25.74;44.39
76762;BME280;65705;51.032;13.790;2023-06-19T12:12:56;100084.00;;;25.83;44.10
76762;BME280;65705;51.032;13.790;2023-06-19T12:15:22;100088.38;;;25.94;43.86
76762;BME280;65705;51.032;13.790;2023-06-19T12:17:48;100085.81;;;26.05;43.89
76762;BME280;65705;51.032;13.790;2023-06-19T12:20:14;100076.94;;;26.14;43.41
76762;BME280;65705;51.032;13.790;2023-06-19T12:22:40;100077.03;;;26.24;42.60
76762;BME280;65705;51.032;13.790;2023-06-19T12:25:06;100076.78;;;26.36;41.96
76762;BME280;65705;51.032;13.790;2023-06-19T12:27:32;100069.06;;;26.49;41.99
76762;BME280;65705;51.032;13.790;2023-06-19T12:29:57;100073.16;;;26.62;40.11
76762;BME280;65705;51.032;13.790;2023-06-19T12:32:23;100081.00;;;26.68;38.96
76762;BME280;65705;51.032;13.790;2023-06-19T12:34:50;100075.09;;;26.76;38.37
76762;BME280;65705;51.032;13.790;2023-06-19T12:37:20;100072.16;;;26.83;38.33
76762;BME280;65705;51.032;13.790;2023-06-19T12:39:52;100070.00;;;26.85;37.87
76762;BME280;65705;51.032;13.790;2023-06-19T12:42:17;100067.88;;;26.87;37.48
76762;BME280;65705;51.032;13.790;2023-06-19T12:44:43;100069.75;;;26.91;36.77
76762;BME280;65705;51.032;13.790;2023-06-19T12:47:13;100069.75;;;26.91;34.85
76762;BME280;65705;51.032;13.790;2023-06-19T12:49:40;100069.47;;;26.93;35.16
76762;BME280;65705;51.032;13.790;2023-06-19T12:52:06;100066.28;;;26.96;34.62